| Back to River Map | <<< Previous Forecast Point | | | Next Forecast Point >>> | Printer Version | Graph Version |  |
|
SACRAMENTO RIVER - FREMONT WEIR (FMWC1)
| Latitude: 38.77º N | Longitude: 121.67º W | Elevation: 40 Feet | | Forecast Type: Official Location |
| Location: Sutter & Yolo Counties in California | Bulletin Group: Lower Sacramento | River Group: Lower Sacramento |
| Issuance Time: | Aug 31 2026 at 7:39 AM PDT | Next Issuance: | Sep 01 2026 at 9:00 AM PDT
| |
| Action/Monitor: 32.0 Feet | Minor Flood: 39.5 Feet | Moderate Flood: 43.0 Feet | Major Flood: 44.0 Feet |
# Tabular Observed and Forecast Hydrograph Information
#
# Location: Sacramento River - Fremont Weir (FMWC1)
#
# File Generation Time: 08/31/2026 at 07:40 AM PDT
# Data Interval: 1 Hour
#
# Most Recent Date & Time of Maximum Observed: 08/28/2026 at 01:00 AM PDT
# Maximum Observed Stage: 17.39 Feet
# Maximum Observed Flow: 15996 cfs
#
# Earliest Date & Time of Maximum Forecast: 08/31/2026 at 09:00 PM PDT
# Maximum Forecast Stage: 17.25 Feet
# Maximum Forecast Flow: 15754 cfs
#
# OBSERVED
#
# Date & Time (Local) Stage (Feet) Flow (cfs) Trend Observed Status
# ---------------------------------------------------------------------------------
08/26/2026 07 AM PDT 17.22 15703 Normal
08/26/2026 08 AM PDT 17.22 15703 0 Normal
08/26/2026 09 AM PDT 17.22 15703 0 Normal
08/26/2026 10 AM PDT 17.23 15720 + Normal
08/26/2026 11 AM PDT 17.23 15720 0 Normal
08/26/2026 12 PM PDT 17.23 15720 0 Normal
08/26/2026 01 PM PDT 17.23 15720 0 Normal
08/26/2026 02 PM PDT 17.24 15737 + Normal
08/26/2026 03 PM PDT 17.25 15754 + Normal
08/26/2026 04 PM PDT 17.25 15754 0 Normal
08/26/2026 05 PM PDT 17.25 15754 0 Normal
08/26/2026 06 PM PDT 17.25 15754 0 Normal
08/26/2026 07 PM PDT 17.25 15754 0 Normal
08/26/2026 08 PM PDT 17.25 15754 0 Normal
08/26/2026 09 PM PDT 17.26 15771 + Normal
08/26/2026 10 PM PDT 17.27 15789 + Normal
08/26/2026 11 PM PDT 17.28 15806 + Normal
08/27/2026 12 AM PDT 17.29 15823 + Normal
08/27/2026 01 AM PDT 17.31 15858 + Normal
08/27/2026 02 AM PDT 17.32 15875 + Normal
08/27/2026 03 AM PDT 17.33 15892 + Normal
08/27/2026 04 AM PDT 17.34 15910 + Normal
08/27/2026 05 AM PDT 17.33 15892 - Normal
08/27/2026 06 AM PDT 17.35 15927 + Normal
08/27/2026 07 AM PDT 17.35 15927 0 Normal
08/27/2026 08 AM PDT 17.34 15910 - Normal
08/27/2026 09 AM PDT 17.33 15892 - Normal
08/27/2026 10 AM PDT 17.35 15927 + Normal
08/27/2026 11 AM PDT 17.33 15892 - Normal
08/27/2026 12 PM PDT 17.32 15875 - Normal
08/27/2026 01 PM PDT 17.33 15892 + Normal
08/27/2026 02 PM PDT 17.32 15875 - Normal
08/27/2026 03 PM PDT 17.31 15858 - Normal
08/27/2026 04 PM PDT 17.32 15875 + Normal
08/27/2026 05 PM PDT 17.33 15892 + Normal
08/27/2026 06 PM PDT 17.35 15927 + Normal
08/27/2026 07 PM PDT 17.35 15927 0 Normal
08/27/2026 08 PM PDT 17.36 15944 + Normal
08/27/2026 09 PM PDT 17.36 15944 0 Normal
08/27/2026 10 PM PDT 17.37 15962 + Normal
08/27/2026 11 PM PDT 17.39 15996 + Normal
08/28/2026 12 AM PDT 17.38 15979 - Normal
08/28/2026 01 AM PDT 17.39 15996 + Normal
08/28/2026 02 AM PDT 17.38 15979 - Normal
08/28/2026 03 AM PDT 17.36 15944 - Normal
08/28/2026 04 AM PDT 17.36 15944 0 Normal
08/28/2026 05 AM PDT 17.35 15927 - Normal
08/28/2026 06 AM PDT 17.32 15875 - Normal
08/28/2026 07 AM PDT 17.34 15910 + Normal
08/28/2026 08 AM PDT 17.31 15858 - Normal
08/28/2026 09 AM PDT 17.30 15840 - Normal
08/28/2026 10 AM PDT 17.28 15806 - Normal
08/28/2026 11 AM PDT 17.29 15823 + Normal
08/28/2026 12 PM PDT 17.29 15823 0 Normal
08/28/2026 01 PM PDT 17.30 15840 + Normal
08/28/2026 02 PM PDT 17.28 15806 - Normal
08/28/2026 03 PM PDT 17.29 15823 + Normal
08/28/2026 04 PM PDT 17.28 15806 - Normal
08/28/2026 05 PM PDT 17.28 15806 0 Normal
08/28/2026 06 PM PDT 17.27 15789 - Normal
08/28/2026 07 PM PDT 17.27 15789 0 Normal
08/28/2026 08 PM PDT 17.26 15771 - Normal
08/28/2026 09 PM PDT 17.27 15789 + Normal
08/28/2026 10 PM PDT 17.27 15789 0 Normal
08/28/2026 11 PM PDT 17.27 15789 0 Normal
08/29/2026 12 AM PDT 17.25 15754 - Normal
08/29/2026 01 AM PDT 17.24 15737 - Normal
08/29/2026 02 AM PDT 17.25 15754 + Normal
08/29/2026 03 AM PDT 17.24 15737 - Normal
08/29/2026 04 AM PDT 17.23 15720 - Normal
08/29/2026 05 AM PDT 17.22 15703 - Normal
08/29/2026 06 AM PDT 17.21 15685 - Normal
08/29/2026 07 AM PDT 17.19 15651 - Normal
08/29/2026 08 AM PDT 17.20 15668 + Normal
08/29/2026 09 AM PDT 17.20 15668 0 Normal
08/29/2026 10 AM PDT 17.20 15668 0 Normal
08/29/2026 11 AM PDT 17.22 15703 + Normal
08/29/2026 12 PM PDT 17.23 15720 + Normal
08/29/2026 01 PM PDT 17.24 15737 + Normal
08/29/2026 02 PM PDT 17.23 15720 - Normal
08/29/2026 03 PM PDT 17.24 15737 + Normal
08/29/2026 04 PM PDT 17.24 15737 0 Normal
08/29/2026 05 PM PDT 17.26 15771 + Normal
08/29/2026 06 PM PDT 17.27 15789 + Normal
08/29/2026 07 PM PDT 17.28 15806 + Normal
08/29/2026 08 PM PDT 17.27 15789 - Normal
08/29/2026 09 PM PDT 17.29 15823 + Normal
08/29/2026 10 PM PDT 17.30 15840 + Normal
08/29/2026 11 PM PDT 17.29 15823 - Normal
08/30/2026 12 AM PDT 17.30 15840 + Normal
08/30/2026 01 AM PDT 17.29 15823 - Normal
08/30/2026 02 AM PDT 17.28 15806 - Normal
08/30/2026 03 AM PDT 17.27 15789 - Normal
08/30/2026 04 AM PDT 17.27 15789 0 Normal
08/30/2026 05 AM PDT 17.25 15754 - Normal
08/30/2026 06 AM PDT 17.24 15737 - Normal
08/30/2026 07 AM PDT 17.24 15737 0 Normal
08/30/2026 08 AM PDT 17.22 15703 - Normal
08/30/2026 09 AM PDT 17.19 15651 - Normal
08/30/2026 10 AM PDT 17.20 15668 + Normal
08/30/2026 11 AM PDT 17.21 15685 + Normal
08/30/2026 12 PM PDT 17.22 15703 + Normal
08/30/2026 01 PM PDT 17.22 15703 0 Normal
08/30/2026 02 PM PDT 17.20 15668 - Normal
08/30/2026 03 PM PDT 17.20 15668 0 Normal
08/30/2026 04 PM PDT 17.21 15685 + Normal
08/30/2026 05 PM PDT 17.19 15651 - Normal
08/30/2026 06 PM PDT 17.20 15668 + Normal
08/30/2026 07 PM PDT 17.20 15668 0 Normal
08/30/2026 08 PM PDT 17.21 15685 + Normal
08/30/2026 09 PM PDT 17.19 15651 - Normal
08/30/2026 10 PM PDT 17.20 15668 + Normal
08/30/2026 11 PM PDT 17.20 15668 0 Normal
08/31/2026 12 AM PDT 17.20 15668 0 Normal
08/31/2026 01 AM PDT 17.20 15668 0 Normal
08/31/2026 02 AM PDT 17.20 15668 0 Normal
08/31/2026 03 AM PDT 17.20 15668 0 Normal
08/31/2026 04 AM PDT 17.19 15651 - Normal
08/31/2026 05 AM PDT 17.20 15668 + Normal
08/31/2026 06 AM PDT 17.20 15668 0 Normal
08/31/2026 07 AM PDT 17.20 15668 0 Normal
#
# FORECAST
#
# Date & Time (Local) Stage (Feet) Flow (cfs) Trend Forecast Status
# ---------------------------------------------------------------------------------
08/31/2026 08 AM PDT 17.20 15668 Normal
08/31/2026 09 AM PDT 17.20 15668 0 Normal
08/31/2026 10 AM PDT 17.20 15668 0 Normal
08/31/2026 11 AM PDT 17.20 15668 0 Normal
08/31/2026 12 PM PDT 17.20 15668 0 Normal
08/31/2026 01 PM PDT 17.21 15685 + Normal
08/31/2026 02 PM PDT 17.21 15685 0 Normal
08/31/2026 03 PM PDT 17.21 15685 0 Normal
08/31/2026 04 PM PDT 17.21 15685 0 Normal
08/31/2026 05 PM PDT 17.21 15685 0 Normal
08/31/2026 06 PM PDT 17.23 15720 + Normal
08/31/2026 07 PM PDT 17.24 15737 + Normal
08/31/2026 08 PM PDT 17.24 15737 0 Normal
08/31/2026 09 PM PDT 17.25 15754 + Normal
08/31/2026 10 PM PDT 17.25 15754 0 Normal
08/31/2026 11 PM PDT 17.25 15754 0 Normal
09/01/2026 12 AM PDT 17.25 15754 0 Normal
09/01/2026 01 AM PDT 17.25 15754 0 Normal
09/01/2026 02 AM PDT 17.25 15754 0 Normal
09/01/2026 03 AM PDT 17.25 15754 0 Normal
09/01/2026 04 AM PDT 17.25 15754 0 Normal
09/01/2026 05 AM PDT 17.25 15754 0 Normal
09/01/2026 06 AM PDT 17.25 15754 0 Normal
09/01/2026 07 AM PDT 17.25 15754 0 Normal
09/01/2026 08 AM PDT 17.25 15754 0 Normal
09/01/2026 09 AM PDT 17.25 15754 0 Normal
09/01/2026 10 AM PDT 17.24 15737 - Normal
09/01/2026 11 AM PDT 17.24 15737 0 Normal
09/01/2026 12 PM PDT 17.24 15737 0 Normal
09/01/2026 01 PM PDT 17.24 15737 0 Normal
09/01/2026 02 PM PDT 17.24 15737 0 Normal
09/01/2026 03 PM PDT 17.23 15720 - Normal
09/01/2026 04 PM PDT 17.23 15720 0 Normal
09/01/2026 05 PM PDT 17.23 15720 0 Normal
09/01/2026 06 PM PDT 17.24 15737 + Normal
09/01/2026 07 PM PDT 17.24 15737 0 Normal
09/01/2026 08 PM PDT 17.24 15737 0 Normal
09/01/2026 09 PM PDT 17.23 15720 - Normal
09/01/2026 10 PM PDT 17.23 15720 0 Normal
09/01/2026 11 PM PDT 17.23 15720 0 Normal
09/02/2026 12 AM PDT 17.22 15703 - Normal
09/02/2026 01 AM PDT 17.22 15703 0 Normal
09/02/2026 02 AM PDT 17.21 15685 - Normal
09/02/2026 03 AM PDT 17.21 15685 0 Normal
09/02/2026 04 AM PDT 17.20 15668 - Normal
09/02/2026 05 AM PDT 17.20 15668 0 Normal
09/02/2026 06 AM PDT 17.19 15651 - Normal
09/02/2026 07 AM PDT 17.18 15634 - Normal
09/02/2026 08 AM PDT 17.18 15634 0 Normal
09/02/2026 09 AM PDT 17.17 15617 - Normal
09/02/2026 10 AM PDT 17.17 15617 0 Normal
09/02/2026 11 AM PDT 17.16 15600 - Normal
09/02/2026 12 PM PDT 17.16 15600 0 Normal
09/02/2026 01 PM PDT 17.15 15582 - Normal
09/02/2026 02 PM PDT 17.14 15565 - Normal
09/02/2026 03 PM PDT 17.14 15565 0 Normal
09/02/2026 04 PM PDT 17.13 15548 - Normal
09/02/2026 05 PM PDT 17.12 15531 - Normal
09/02/2026 06 PM PDT 17.13 15548 + Normal
09/02/2026 07 PM PDT 17.13 15548 0 Normal
09/02/2026 08 PM PDT 17.12 15531 - Normal
09/02/2026 09 PM PDT 17.11 15514 - Normal
09/02/2026 10 PM PDT 17.11 15514 0 Normal
09/02/2026 11 PM PDT 17.10 15497 - Normal
09/03/2026 12 AM PDT 17.09 15480 - Normal
09/03/2026 01 AM PDT 17.09 15480 0 Normal
09/03/2026 02 AM PDT 17.08 15463 - Normal
09/03/2026 03 AM PDT 17.08 15463 0 Normal
09/03/2026 04 AM PDT 17.07 15446 - Normal
09/03/2026 05 AM PDT 17.07 15446 0 Normal
09/03/2026 06 AM PDT 17.06 15428 - Normal
09/03/2026 07 AM PDT 17.05 15411 - Normal
09/03/2026 08 AM PDT 17.05 15411 0 Normal
09/03/2026 09 AM PDT 17.05 15411 0 Normal
09/03/2026 10 AM PDT 17.04 15394 - Normal
09/03/2026 11 AM PDT 17.04 15394 0 Normal
09/03/2026 12 PM PDT 17.03 15377 - Normal
09/03/2026 01 PM PDT 17.03 15377 0 Normal
09/03/2026 02 PM PDT 17.02 15360 - Normal
09/03/2026 03 PM PDT 17.02 15360 0 Normal
09/03/2026 04 PM PDT 17.02 15360 0 Normal
09/03/2026 05 PM PDT 17.02 15360 0 Normal
09/03/2026 06 PM PDT 17.03 15377 + Normal
09/03/2026 07 PM PDT 17.02 15360 - Normal
09/03/2026 08 PM PDT 17.02 15360 0 Normal
09/03/2026 09 PM PDT 17.02 15360 0 Normal
09/03/2026 10 PM PDT 17.02 15360 0 Normal
09/03/2026 11 PM PDT 17.02 15360 0 Normal
09/04/2026 12 AM PDT 17.01 15343 - Normal
09/04/2026 01 AM PDT 17.01 15343 0 Normal
09/04/2026 02 AM PDT 17.01 15343 0 Normal
09/04/2026 03 AM PDT 17.01 15343 0 Normal
09/04/2026 04 AM PDT 17.01 15343 0 Normal
09/04/2026 05 AM PDT 17.01 15343 0 Normal
09/04/2026 06 AM PDT 17.01 15343 0 Normal
09/04/2026 07 AM PDT 17.01 15343 0 Normal
09/04/2026 08 AM PDT 17.01 15343 0 Normal
09/04/2026 09 AM PDT 17.01 15343 0 Normal
09/04/2026 10 AM PDT 17.00 15326 - Normal
09/04/2026 11 AM PDT 17.00 15326 0 Normal
09/04/2026 12 PM PDT 17.00 15326 0 Normal
09/04/2026 01 PM PDT 17.00 15326 0 Normal
09/04/2026 02 PM PDT 17.00 15326 0 Normal
09/04/2026 03 PM PDT 17.00 15326 0 Normal
09/04/2026 04 PM PDT 17.00 15326 0 Normal
09/04/2026 05 PM PDT 17.00 15326 0 Normal
09/04/2026 06 PM PDT 17.02 15360 + Normal
09/04/2026 07 PM PDT 17.02 15360 0 Normal
09/04/2026 08 PM PDT 17.02 15360 0 Normal
09/04/2026 09 PM PDT 17.02 15360 0 Normal
09/04/2026 10 PM PDT 17.02 15360 0 Normal
09/04/2026 11 PM PDT 17.02 15360 0 Normal
09/05/2026 12 AM PDT 17.02 15360 0 Normal
09/05/2026 01 AM PDT 17.02 15360 0 Normal
09/05/2026 02 AM PDT 17.02 15360 0 Normal
09/05/2026 03 AM PDT 17.02 15360 0 Normal
09/05/2026 04 AM PDT 17.02 15360 0 Normal
09/05/2026 05 AM PDT 17.02 15360 0 Normal
#
# NOTE 1: Stages are rounded to the nearest hundredth (.01) of a foot.
# NOTE 2: Flows are rounded to the nearest (1) cfs.
# NOTE 3: Trends are determined using hourly change in unrounded stage and flow.
# NOTE 4: Maximum Values are determined using unrounded stage and flow.
# Tabular Observed and Forecast Hydrograph Information
#
# Location: Fremont Weir - Estimated Stage/Flow into Yolo Bypass (FMWC1)
#
# File Generation Time: 08/31/2026 at 07:40 AM PDT
# Data Interval: 1 Hour
#
# Most Recent Date & Time of Maximum Observed: 08/31/2026 at 07:00 AM PDT
# Maximum Observed Stage: 31.90 Feet
# Maximum Observed Flow: 0 cfs
#
# Earliest Date & Time of Maximum Forecast: 08/31/2026 at 08:00 AM PDT
# Maximum Forecast Stage: 31.90 Feet
# Maximum Forecast Flow: 0 cfs
#
# OBSERVED
#
# Date & Time (Local) Stage (Feet) Flow (cfs) Trend Observed Status
# ---------------------------------------------------------------------------------
08/26/2026 07 AM PDT 31.90 0 Normal
08/26/2026 08 AM PDT 31.90 0 0 Normal
08/26/2026 09 AM PDT 31.90 0 0 Normal
08/26/2026 10 AM PDT 31.90 0 0 Normal
08/26/2026 11 AM PDT 31.90 0 0 Normal
08/26/2026 12 PM PDT 31.90 0 0 Normal
08/26/2026 01 PM PDT 31.90 0 0 Normal
08/26/2026 02 PM PDT 31.90 0 0 Normal
08/26/2026 03 PM PDT 31.90 0 0 Normal
08/26/2026 04 PM PDT 31.90 0 0 Normal
08/26/2026 05 PM PDT 31.90 0 0 Normal
08/26/2026 06 PM PDT 31.90 0 0 Normal
08/26/2026 07 PM PDT 31.90 0 0 Normal
08/26/2026 08 PM PDT 31.90 0 0 Normal
08/26/2026 09 PM PDT 31.90 0 0 Normal
08/26/2026 10 PM PDT 31.90 0 0 Normal
08/26/2026 11 PM PDT 31.90 0 0 Normal
08/27/2026 12 AM PDT 31.90 0 0 Normal
08/27/2026 01 AM PDT 31.90 0 0 Normal
08/27/2026 02 AM PDT 31.90 0 0 Normal
08/27/2026 03 AM PDT 31.90 0 0 Normal
08/27/2026 04 AM PDT 31.90 0 0 Normal
08/27/2026 05 AM PDT 31.90 0 0 Normal
08/27/2026 06 AM PDT 31.90 0 0 Normal
08/27/2026 07 AM PDT 31.90 0 0 Normal
08/27/2026 08 AM PDT 31.90 0 0 Normal
08/27/2026 09 AM PDT 31.90 0 0 Normal
08/27/2026 10 AM PDT 31.90 0 0 Normal
08/27/2026 11 AM PDT 31.90 0 0 Normal
08/27/2026 12 PM PDT 31.90 0 0 Normal
08/27/2026 01 PM PDT 31.90 0 0 Normal
08/27/2026 02 PM PDT 31.90 0 0 Normal
08/27/2026 03 PM PDT 31.90 0 0 Normal
08/27/2026 04 PM PDT 31.90 0 0 Normal
08/27/2026 05 PM PDT 31.90 0 0 Normal
08/27/2026 06 PM PDT 31.90 0 0 Normal
08/27/2026 07 PM PDT 31.90 0 0 Normal
08/27/2026 08 PM PDT 31.90 0 0 Normal
08/27/2026 09 PM PDT 31.90 0 0 Normal
08/27/2026 10 PM PDT 31.90 0 0 Normal
08/27/2026 11 PM PDT 31.90 0 0 Normal
08/28/2026 12 AM PDT 31.90 0 0 Normal
08/28/2026 01 AM PDT 31.90 0 0 Normal
08/28/2026 02 AM PDT 31.90 0 0 Normal
08/28/2026 03 AM PDT 31.90 0 0 Normal
08/28/2026 04 AM PDT 31.90 0 0 Normal
08/28/2026 05 AM PDT 31.90 0 0 Normal
08/28/2026 06 AM PDT 31.90 0 0 Normal
08/28/2026 07 AM PDT 31.90 0 0 Normal
08/28/2026 08 AM PDT 31.90 0 0 Normal
08/28/2026 09 AM PDT 31.90 0 0 Normal
08/28/2026 10 AM PDT 31.90 0 0 Normal
08/28/2026 11 AM PDT 31.90 0 0 Normal
08/28/2026 12 PM PDT 31.90 0 0 Normal
08/28/2026 01 PM PDT 31.90 0 0 Normal
08/28/2026 02 PM PDT 31.90 0 0 Normal
08/28/2026 03 PM PDT 31.90 0 0 Normal
08/28/2026 04 PM PDT 31.90 0 0 Normal
08/28/2026 05 PM PDT 31.90 0 0 Normal
08/28/2026 06 PM PDT 31.90 0 0 Normal
08/28/2026 07 PM PDT 31.90 0 0 Normal
08/28/2026 08 PM PDT 31.90 0 0 Normal
08/28/2026 09 PM PDT 31.90 0 0 Normal
08/28/2026 10 PM PDT 31.90 0 0 Normal
08/28/2026 11 PM PDT 31.90 0 0 Normal
08/29/2026 12 AM PDT 31.90 0 0 Normal
08/29/2026 01 AM PDT 31.90 0 0 Normal
08/29/2026 02 AM PDT 31.90 0 0 Normal
08/29/2026 03 AM PDT 31.90 0 0 Normal
08/29/2026 04 AM PDT 31.90 0 0 Normal
08/29/2026 05 AM PDT 31.90 0 0 Normal
08/29/2026 06 AM PDT 31.90 0 0 Normal
08/29/2026 07 AM PDT 31.90 0 0 Normal
08/29/2026 08 AM PDT 31.90 0 0 Normal
08/29/2026 09 AM PDT 31.90 0 0 Normal
08/29/2026 10 AM PDT 31.90 0 0 Normal
08/29/2026 11 AM PDT 31.90 0 0 Normal
08/29/2026 12 PM PDT 31.90 0 0 Normal
08/29/2026 01 PM PDT 31.90 0 0 Normal
08/29/2026 02 PM PDT 31.90 0 0 Normal
08/29/2026 03 PM PDT 31.90 0 0 Normal
08/29/2026 04 PM PDT 31.90 0 0 Normal
08/29/2026 05 PM PDT 31.90 0 0 Normal
08/29/2026 06 PM PDT 31.90 0 0 Normal
08/29/2026 07 PM PDT 31.90 0 0 Normal
08/29/2026 08 PM PDT 31.90 0 0 Normal
08/29/2026 09 PM PDT 31.90 0 0 Normal
08/29/2026 10 PM PDT 31.90 0 0 Normal
08/29/2026 11 PM PDT 31.90 0 0 Normal
08/30/2026 12 AM PDT 31.90 0 0 Normal
08/30/2026 01 AM PDT 31.90 0 0 Normal
08/30/2026 02 AM PDT 31.90 0 0 Normal
08/30/2026 03 AM PDT 31.90 0 0 Normal
08/30/2026 04 AM PDT 31.90 0 0 Normal
08/30/2026 05 AM PDT 31.90 0 0 Normal
08/30/2026 06 AM PDT 31.90 0 0 Normal
08/30/2026 07 AM PDT 31.90 0 0 Normal
08/30/2026 08 AM PDT 31.90 0 0 Normal
08/30/2026 09 AM PDT 31.90 0 0 Normal
08/30/2026 10 AM PDT 31.90 0 0 Normal
08/30/2026 11 AM PDT 31.90 0 0 Normal
08/30/2026 12 PM PDT 31.90 0 0 Normal
08/30/2026 01 PM PDT 31.90 0 0 Normal
08/30/2026 02 PM PDT 31.90 0 0 Normal
08/30/2026 03 PM PDT 31.90 0 0 Normal
08/30/2026 04 PM PDT 31.90 0 0 Normal
08/30/2026 05 PM PDT 31.90 0 0 Normal
08/30/2026 06 PM PDT 31.90 0 0 Normal
08/30/2026 07 PM PDT 31.90 0 0 Normal
08/30/2026 08 PM PDT 31.90 0 0 Normal
08/30/2026 09 PM PDT 31.90 0 0 Normal
08/30/2026 10 PM PDT 31.90 0 0 Normal
08/30/2026 11 PM PDT 31.90 0 0 Normal
08/31/2026 12 AM PDT 31.90 0 0 Normal
08/31/2026 01 AM PDT 31.90 0 0 Normal
08/31/2026 02 AM PDT 31.90 0 0 Normal
08/31/2026 03 AM PDT 31.90 0 0 Normal
08/31/2026 04 AM PDT 31.90 0 0 Normal
08/31/2026 05 AM PDT 31.90 0 0 Normal
08/31/2026 06 AM PDT 31.90 0 0 Normal
08/31/2026 07 AM PDT 31.90 0 0 Normal
#
# FORECAST
#
# Date & Time (Local) Stage (Feet) Flow (cfs) Trend Forecast Status
# ---------------------------------------------------------------------------------
08/31/2026 08 AM PDT 31.90 0 Normal
08/31/2026 09 AM PDT 31.90 0 0 Normal
08/31/2026 10 AM PDT 31.90 0 0 Normal
08/31/2026 11 AM PDT 31.90 0 0 Normal
08/31/2026 12 PM PDT 31.90 0 0 Normal
08/31/2026 01 PM PDT 31.90 0 0 Normal
08/31/2026 02 PM PDT 31.90 0 0 Normal
08/31/2026 03 PM PDT 31.90 0 0 Normal
08/31/2026 04 PM PDT 31.90 0 0 Normal
08/31/2026 05 PM PDT 31.90 0 0 Normal
08/31/2026 06 PM PDT 31.90 0 0 Normal
08/31/2026 07 PM PDT 31.90 0 0 Normal
08/31/2026 08 PM PDT 31.90 0 0 Normal
08/31/2026 09 PM PDT 31.90 0 0 Normal
08/31/2026 10 PM PDT 31.90 0 0 Normal
08/31/2026 11 PM PDT 31.90 0 0 Normal
09/01/2026 12 AM PDT 31.90 0 0 Normal
09/01/2026 01 AM PDT 31.90 0 0 Normal
09/01/2026 02 AM PDT 31.90 0 0 Normal
09/01/2026 03 AM PDT 31.90 0 0 Normal
09/01/2026 04 AM PDT 31.90 0 0 Normal
09/01/2026 05 AM PDT 31.90 0 0 Normal
09/01/2026 06 AM PDT 31.90 0 0 Normal
09/01/2026 07 AM PDT 31.90 0 0 Normal
09/01/2026 08 AM PDT 31.90 0 0 Normal
09/01/2026 09 AM PDT 31.90 0 0 Normal
09/01/2026 10 AM PDT 31.90 0 0 Normal
09/01/2026 11 AM PDT 31.90 0 0 Normal
09/01/2026 12 PM PDT 31.90 0 0 Normal
09/01/2026 01 PM PDT 31.90 0 0 Normal
09/01/2026 02 PM PDT 31.90 0 0 Normal
09/01/2026 03 PM PDT 31.90 0 0 Normal
09/01/2026 04 PM PDT 31.90 0 0 Normal
09/01/2026 05 PM PDT 31.90 0 0 Normal
09/01/2026 06 PM PDT 31.90 0 0 Normal
09/01/2026 07 PM PDT 31.90 0 0 Normal
09/01/2026 08 PM PDT 31.90 0 0 Normal
09/01/2026 09 PM PDT 31.90 0 0 Normal
09/01/2026 10 PM PDT 31.90 0 0 Normal
09/01/2026 11 PM PDT 31.90 0 0 Normal
09/02/2026 12 AM PDT 31.90 0 0 Normal
09/02/2026 01 AM PDT 31.90 0 0 Normal
09/02/2026 02 AM PDT 31.90 0 0 Normal
09/02/2026 03 AM PDT 31.90 0 0 Normal
09/02/2026 04 AM PDT 31.90 0 0 Normal
09/02/2026 05 AM PDT 31.90 0 0 Normal
09/02/2026 06 AM PDT 31.90 0 0 Normal
09/02/2026 07 AM PDT 31.90 0 0 Normal
09/02/2026 08 AM PDT 31.90 0 0 Normal
09/02/2026 09 AM PDT 31.90 0 0 Normal
09/02/2026 10 AM PDT 31.90 0 0 Normal
09/02/2026 11 AM PDT 31.90 0 0 Normal
09/02/2026 12 PM PDT 31.90 0 0 Normal
09/02/2026 01 PM PDT 31.90 0 0 Normal
09/02/2026 02 PM PDT 31.90 0 0 Normal
09/02/2026 03 PM PDT 31.90 0 0 Normal
09/02/2026 04 PM PDT 31.90 0 0 Normal
09/02/2026 05 PM PDT 31.90 0 0 Normal
09/02/2026 06 PM PDT 31.90 0 0 Normal
09/02/2026 07 PM PDT 31.90 0 0 Normal
09/02/2026 08 PM PDT 31.90 0 0 Normal
09/02/2026 09 PM PDT 31.90 0 0 Normal
09/02/2026 10 PM PDT 31.90 0 0 Normal
09/02/2026 11 PM PDT 31.90 0 0 Normal
09/03/2026 12 AM PDT 31.90 0 0 Normal
09/03/2026 01 AM PDT 31.90 0 0 Normal
09/03/2026 02 AM PDT 31.90 0 0 Normal
09/03/2026 03 AM PDT 31.90 0 0 Normal
09/03/2026 04 AM PDT 31.90 0 0 Normal
09/03/2026 05 AM PDT 31.90 0 0 Normal
09/03/2026 06 AM PDT 31.90 0 0 Normal
09/03/2026 07 AM PDT 31.90 0 0 Normal
09/03/2026 08 AM PDT 31.90 0 0 Normal
09/03/2026 09 AM PDT 31.90 0 0 Normal
09/03/2026 10 AM PDT 31.90 0 0 Normal
09/03/2026 11 AM PDT 31.90 0 0 Normal
09/03/2026 12 PM PDT 31.90 0 0 Normal
09/03/2026 01 PM PDT 31.90 0 0 Normal
09/03/2026 02 PM PDT 31.90 0 0 Normal
09/03/2026 03 PM PDT 31.90 0 0 Normal
09/03/2026 04 PM PDT 31.90 0 0 Normal
09/03/2026 05 PM PDT 31.90 0 0 Normal
09/03/2026 06 PM PDT 31.90 0 0 Normal
09/03/2026 07 PM PDT 31.90 0 0 Normal
09/03/2026 08 PM PDT 31.90 0 0 Normal
09/03/2026 09 PM PDT 31.90 0 0 Normal
09/03/2026 10 PM PDT 31.90 0 0 Normal
09/03/2026 11 PM PDT 31.90 0 0 Normal
09/04/2026 12 AM PDT 31.90 0 0 Normal
09/04/2026 01 AM PDT 31.90 0 0 Normal
09/04/2026 02 AM PDT 31.90 0 0 Normal
09/04/2026 03 AM PDT 31.90 0 0 Normal
09/04/2026 04 AM PDT 31.90 0 0 Normal
09/04/2026 05 AM PDT 31.90 0 0 Normal
09/04/2026 06 AM PDT 31.90 0 0 Normal
09/04/2026 07 AM PDT 31.90 0 0 Normal
09/04/2026 08 AM PDT 31.90 0 0 Normal
09/04/2026 09 AM PDT 31.90 0 0 Normal
09/04/2026 10 AM PDT 31.90 0 0 Normal
09/04/2026 11 AM PDT 31.90 0 0 Normal
09/04/2026 12 PM PDT 31.90 0 0 Normal
09/04/2026 01 PM PDT 31.90 0 0 Normal
09/04/2026 02 PM PDT 31.90 0 0 Normal
09/04/2026 03 PM PDT 31.90 0 0 Normal
09/04/2026 04 PM PDT 31.90 0 0 Normal
09/04/2026 05 PM PDT 31.90 0 0 Normal
09/04/2026 06 PM PDT 31.90 0 0 Normal
09/04/2026 07 PM PDT 31.90 0 0 Normal
09/04/2026 08 PM PDT 31.90 0 0 Normal
09/04/2026 09 PM PDT 31.90 0 0 Normal
09/04/2026 10 PM PDT 31.90 0 0 Normal
09/04/2026 11 PM PDT 31.90 0 0 Normal
09/05/2026 12 AM PDT 31.90 0 0 Normal
09/05/2026 01 AM PDT 31.90 0 0 Normal
09/05/2026 02 AM PDT 31.90 0 0 Normal
09/05/2026 03 AM PDT 31.90 0 0 Normal
09/05/2026 04 AM PDT 31.90 0 0 Normal
09/05/2026 05 AM PDT 31.90 0 0 Normal
#
# NOTE 1: Stages are rounded to the nearest hundredth (.01) of a foot.
# NOTE 2: Flows are rounded to the nearest (1) cfs.
# NOTE 3: Trends are determined using hourly change in unrounded stage and flow.
# NOTE 4: Maximum Values are determined using unrounded stage and flow.
|